Homestead, FL

5:54 PM EDT on June 23, 2018 (GMT -0400)
Granada Estates | | Change Station
Active Advisory: Severe Thunderstorm Warning

Elev 26 ft 25.47 °N, 80.45 °W | Updated 8 seconds ago

Mostly Cloudy
Mostly Cloudy
82.8 °F
Feels Like 91 °F
N
0.4
Wind Variable Wind from SSE
Gusts 2.2 mph

Today
High -- | Low -- °F
--% Chance of Precip.
Yesterday
High -- | Low -- °F
Precip. -- in
Pressure 30.00 in
Visibility 10.0 miles
Clouds Scattered Clouds 3700 ft
Scattered Clouds 7000 ft
Heat Index 91 °F
Dew Point 77 °F
Humidity 82%
Rainfall 0.15 in
Snow Depth Not available.
6:32 AM 8:15 PM
Waxing Gibbous, 83% visible
SPECI KHST 232149Z AUTO 31014G20KT 10SM TS -DZ SCT037 SCT070 29/23 A2999 RMK AO2 DZB49 TSB44 SLP159 $
Pressure 30.00 in
Visibility 10.0 miles
Clouds Scattered Clouds 3700 ft
Scattered Clouds 7000 ft
Heat Index 91 °F
Dew Point 77 °F
Humidity 82%
Rainfall 0.15 in
Snow Depth Not available.
6:32 AM 8:15 PM
Waxing Gibbous, 83% visible
SPECI KHST 232149Z AUTO 31014G20KT 10SM TS -DZ SCT037 SCT070 29/23 A2999 RMK AO2 DZB49 TSB44 SLP159 $

Get Your Daily Forecast Email!

Thanks for signing up!

Be on the lookout for a verification email in your inbox.

You'll start receiving severe weather alerts in your inbox..

×

10-Day Weather Forecast

Almanac

Astronomy

Jun. 23, 2018 Rise Set
Actual Time
Civil Twilight
Nautical Twilight
Astronomical Twilight
Moon
Length of Visible Light
Length of Day
Tomorrow will be .
, % of the Moon is Illuminated

Today's Extremes

State Highs State Lows

Community

WunderPhotos

Category 6

Welcome to Category 6. This is the collective home for Weather Underground's featured writeups by Dr. Jeff Masters (right), Bob Henson (left), Chris Burt, and other regular contributors.

Nearby

Air Quality

  Air Quality AQ Index Pollutant
Not available.

Snow Depth

Station Depth Elevation

Earthquake Activity

City Distance Mag. Time & Date
Minimum magnitude displayed is 2.5.

Coastal Water Temperatures

Place Temperature

Stations

Nearby Weather Stations

Station Location Temp. Windchill Dew Point Humidity Wind Precip. Elev Updated Type
                   

Watches & Warnings

Severe Thunderstorm Warning
Issued: 5:36 PM EDT Jun. 23, 2018 – National Weather Service

... The Severe Thunderstorm Warning for northern Miami-Dade County
will expire at 545 PM EDT...

the storm which prompted the warning has weakened below severe
limits, and no longer poses an immediate threat to life or property.
Therefore, the warning will be allowed to expire. However small
hail, gusty winds and heavy rain are still possible with this
thunderstorm.

To report severe weather, contact your nearest law enforcement
agency. They will relay your report to the National Weather Service
Miami.

Lat... Lon 2564 8015 2567 8035 2583 8030 2581 8012
time... Mot... loc 2135z 016deg 13kt 2573 8023


Baxter